Latest Weather Observations for Esperance Airport

IDW60801

Issued at 12:05 pm WST Monday 20 October 2014 (issued every 30 minutes, with the page automatically refreshed every 10 minutes)

About weather observations | Map of weather stations | Latest weather observations for WA | Other Formats
Station Details ID: 009542 Name: ESPERANCE AERO Lat: -33.68 Lon: 121.83 Height: 142.0 m
Data from the previous 72 hours. | See also: Recent months at Esperance Airport
Date/Time
WST
Temp
°C
App
Temp
°C
Dew
Point
Rel
Hum
%
Delta-T
°C
Wind Press
QNH
hPa
Press
MSL
hPa
Rain
since 9 am
mm
Dir
 
Spd
km/h
Gust
km/h
Spd
kts
Gust
kts
20/12:00pm 21.8 17.8 11.8 53 5.6 NW 24 33 13 18 1013.0 1012.8 0.0
20/11:30am 20.5 15.6 11.2 55 5.2 WNW 28 35 15 19 1012.9 1012.7 0.0
20/11:00am 21.6 17.9 12.7 57 5.1 NW 24 32 13 17 1012.9 1012.7 0.0
20/10:30am 20.5 16.9 13.0 62 4.3 WNW 24 33 13 18 1013.1 1012.9 0.0
20/10:00am 19.8 15.9 13.3 66 3.7 WNW 26 33 14 18 1013.4 1013.2 0.0
20/09:30am 18.8 16.2 13.9 73 2.8 WNW 20 26 11 14 1013.5 1013.3 0.0
20/09:00am 18.4 15.0 13.7 74 2.7 NW 24 32 13 17 1013.6 1013.4 42.0
20/08:30am 17.8 15.0 14.3 80 2.0 NNW 22 32 12 17 1013.7 1013.5 42.0
20/08:00am 16.5 13.1 13.6 83 1.6 N 24 33 13 18 1013.7 1013.5 42.0
20/07:30am 15.9 13.1 14.3 90 0.9 N 22 32 12 17 1013.6 1013.4 42.0
20/07:06am 14.4 10.9 13.4 94 0.6 N 24 32 13 17 1013.7 1013.5 42.0
20/07:00am 14.1 10.6 13.3 95 0.4 N 24 33 13 18 1013.7 1013.5 42.0
20/06:30am 13.5 10.9 13.2 98 0.2 NNE 19 26 10 14 1013.7 1013.5 42.0
20/06:00am 13.0 10.2 12.7 98 0.2 NNE 19 26 10 14 1013.3 1013.1 42.0
20/05:57am 13.0 10.2 12.7 98 0.2 NNE 19 22 10 12 1013.2 1013.0 42.0
20/05:30am 12.1 9.1 11.9 99 0.1 N 19 28 10 15 1013.1 1012.9 42.0
20/05:00am 11.9 9.2 11.7 99 0.1 NNE 17 26 9 14 1012.9 1012.7 42.0
20/04:30am 12.0 9.0 11.8 99 0.1 NNE 19 26 10 14 1012.8 1012.6 42.0
20/04:00am 12.5 9.0 12.2 98 0.2 N 22 28 12 15 1012.5 1012.3 42.0
20/03:30am 12.4 9.3 12.1 98 0.2 N 20 28 11 15 1012.6 1012.4 42.0
20/03:00am 12.6 9.1 12.3 98 0.2 NNE 22 32 12 17 1012.5 1012.3 42.0
20/02:30am 12.7 9.7 12.4 98 0.2 NNE 20 26 11 14 1012.2 1012.0 42.0
20/02:00am 13.0 10.0 12.7 98 0.2 NNE 20 28 11 15 1012.1 1011.9 42.0
20/01:30am 13.2 9.5 12.7 97 0.3 N 24 35 13 19 1012.1 1011.9 41.6
20/01:00am 13.4 9.8 12.9 97 0.3 N 24 33 13 18 1012.1 1011.9 41.6
20/12:30am 13.7 9.4 13.1 96 0.3 N 28 39 15 21 1012.1 1011.9 41.6
20/12:00am 13.9 9.6 13.1 95 0.4 N 28 41 15 22 1012.1 1011.9 41.6
 
Date/Time
WST
Temp
°C
App
Temp
°C
Dew
Point
Rel
Hum
%
Delta-T
°C
Wind Press
QNH
hPa
Press
MSL
hPa
Rain
since 9 am
mm
Dir
 
Spd
km/h
Gust
km/h
Spd
kts
Gust
kts
19/11:30pm 14.1 9.8 13.3 95 0.4 N 28 39 15 21 1012.1 1011.9 41.6
19/11:00pm 13.9 11.1 13.3 96 0.3 N 20 28 11 15 1012.3 1012.1 41.6
19/10:30pm 14.0 11.3 13.4 96 0.3 N 20 30 11 16 1012.6 1012.4 41.6
19/10:00pm 14.1 11.6 13.5 96 0.3 N 19 24 10 13 1012.8 1012.6 41.6
19/09:30pm 14.4 11.9 13.6 95 0.4 N 19 22 10 12 1013.2 1013.0 41.6
19/09:00pm 14.8 13.2 14.0 95 0.5 NNE 15 24 8 13 1013.1 1012.9 41.6
19/08:30pm 14.9 12.6 14.6 98 0.2 NE 20 26 11 14 1012.9 1012.7 41.6
19/08:00pm 14.9 13.2 14.6 98 0.2 ENE 17 24 9 13 1013.5 1013.3 41.6
19/07:30pm 15.0 12.6 14.5 97 0.3 E 20 28 11 15 1013.1 1012.9 41.6
19/07:00pm 14.9 10.1 14.6 98 0.2 ESE 33 46 18 25 1011.1 1010.9 41.6
19/06:40pm 14.4 9.5 14.2 99 0.1 ESE 33 46 18 25 1010.6 1010.4 41.6
19/06:30pm 14.6 11.5 14.4 99 0.1 ESE 24 30 13 16 1012.9 1012.7 41.4
19/06:29pm 14.6 11.5 14.4 99 0.1 ESE 24 28 13 15 1012.9 1012.7 41.4
19/06:20pm 14.6 11.8 14.4 99 0.1 SE 22 28 12 15 1012.9 1012.7 41.4
19/06:00pm 14.7 14.1 14.5 99 0.1 NNE 11 17 6 9 1014.9 1014.8 39.2
19/05:30pm 14.8 15.0 14.6 99 0.1 NE 7 11 4 6 1014.5 1014.4 34.8
19/05:00pm 15.0 14.1 14.8 99 0.1 NNE 13 17 7 9 1014.6 1014.5 31.2
19/04:30pm 15.6 13.5 15.3 98 0.2 N 20 24 11 13 1014.1 1013.9 26.8
19/04:00pm 15.5 13.6 15.2 98 0.2 NE 19 24 10 13 1013.0 1012.8 22.8
19/03:57pm 15.5 14.0 15.2 98 0.2 NE 17 24 9 13 1012.8 1012.6 22.4
19/03:30pm 15.8 14.0 15.5 98 0.2 ENE 19 30 10 16 1011.4 1011.2 21.4
19/03:16pm 16.1 14.2 15.8 98 0.2 ENE 20 35 11 19 1011.5 1011.3 21.4
19/03:00pm 16.3 12.2 16.0 98 0.2 E 32 43 17 23 1010.9 1010.7 21.2
19/02:33pm 16.7 13.2 16.5 99 0.1 ENE 30 48 16 26 1010.9 1010.7 21.0
19/02:30pm 16.8 13.3 16.6 99 0.1 ENE 30 44 16 24 1011.0 1010.8 21.0
19/02:16pm 16.8 13.7 16.6 99 0.1 E 28 52 15 28 1010.9 1010.7 21.0
19/02:10pm 16.5 12.5 16.3 99 0.1 E 32 52 17 28 1010.8 1010.6 21.0
19/02:07pm 16.4 12.8 16.2 99 0.1 E 30 46 16 25 1010.9 1010.7 21.0
19/02:00pm 16.5 12.9 16.3 99 0.1 E 30 50 16 27 1011.2 1011.0 20.6
19/01:52pm 16.4 12.8 16.2 99 0.1 E 30 48 16 26 1011.3 1011.1 20.6
19/01:39pm 16.4 12.8 16.2 99 0.1 E 30 44 16 24 1011.4 1011.2 19.6
19/01:30pm 16.4 13.2 16.2 99 0.1 E 28 41 15 22 1011.6 1011.4 19.0
19/01:28pm 16.4 13.5 16.2 99 0.1 E 26 39 14 21 1011.8 1011.6 18.8
19/01:00pm 16.5 16.1 16.3 99 0.1 E 13 19 7 10 1013.8 1013.6 15.6
19/12:30pm 16.2 15.7 16.0 99 0.1 E 13 17 7 9 1013.9 1013.7 9.2
19/12:00pm 15.8 14.0 15.6 99 0.1 ESE 19 26 10 14 1013.7 1013.5 8.0
19/11:47am 15.6 13.6 15.4 99 0.1 ESE 20 24 11 13 1014.0 1013.8 8.0
19/11:33am 15.5 14.0 15.3 99 0.1 E 17 24 9 13 1014.3 1014.1 7.6
19/11:30am 15.5 14.0 15.3 99 0.1 E 17 24 9 13 1014.4 1014.3 7.4
19/11:15am 15.3 13.4 15.1 99 0.1 ESE 19 24 10 13 1014.6 1014.5 6.6
19/11:00am 15.3 13.4 15.1 99 0.1 ESE 19 26 10 14 1014.8 1014.7 6.6
19/10:30am 14.9 13.2 14.7 99 0.1 ESE 17 24 9 13 1015.3 1015.2 5.8
19/10:00am 14.6 11.8 14.4 99 0.1 ESE 22 35 12 19 1015.7 1015.6 3.6
19/09:30am 14.3 9.9 14.1 99 0.1 ESE 30 39 16 21 1015.9 1015.8 1.8
19/09:00am 14.1 10.0 13.9 99 0.1 ESE 28 37 15 20 1016.5 1016.3 19.8
19/08:30am 14.0 9.9 13.8 99 0.1 ESE 28 39 15 21 1017.0 1016.8 19.0
19/08:00am 14.0 9.1 13.8 99 0.1 E 32 44 17 24 1017.1 1016.9 18.6
19/07:49am 14.0 9.9 13.8 99 0.1 ESE 28 39 15 21 1017.1 1016.9 18.6
19/07:45am 13.9 9.8 13.7 99 0.1 E 28 39 15 21 1017.0 1016.8 18.6
19/07:30am 13.8 9.2 13.6 99 0.1 ESE 30 46 16 25 1017.1 1016.9 18.4
19/07:00am 13.6 8.0 13.4 99 0.1 ESE 35 46 19 25 1016.3 1016.2 18.4
19/06:40am 13.4 8.3 13.2 99 0.1 ESE 32 50 17 27 1016.6 1016.4 18.4
19/06:36am 13.3 8.2 13.1 99 0.1 ESE 32 50 17 27 1016.8 1016.6 18.4
19/06:30am 13.3 8.0 13.1 99 0.1 ESE 33 48 18 26 1016.9 1016.7 18.4
19/06:13am 13.2 7.5 13.0 99 0.1 ESE 35 48 19 26 1016.2 1016.1 18.4
19/06:08am 13.1 7.4 12.9 99 0.1 ESE 35 48 19 26 1016.5 1016.3 18.4
19/06:00am 13.1 7.4 12.9 99 0.1 ESE 35 46 19 25 1016.9 1016.7 18.4
19/05:30am 13.0 7.6 12.8 99 0.1 ESE 33 46 18 25 1016.7 1016.5 18.4
19/05:07am 12.9 7.7 12.7 99 0.1 ESE 32 50 17 27 1016.5 1016.3 18.2
19/05:00am 13.0 7.8 12.8 99 0.1 ESE 32 46 17 25 1016.7 1016.5 18.2
19/04:30am 13.0 7.6 12.8 99 0.1 SE 33 46 18 25 1016.7 1016.5 18.2
19/04:00am 13.1 7.9 12.9 99 0.1 SE 32 43 17 23 1017.4 1017.2 17.8
19/03:30am 13.0 8.2 12.8 99 0.1 SE 30 41 16 22 1017.7 1017.5 17.6
19/03:00am 12.9 8.8 12.6 98 0.2 SE 26 39 14 21 1017.6 1017.4 17.6
19/02:51am 12.9 8.0 12.6 98 0.2 SE 30 37 16 20 1017.3 1017.1 17.6
19/02:30am 12.8 7.4 12.3 97 0.3 SE 32 39 17 21 1016.8 1016.6 17.6
19/02:11am 13.0 7.7 12.4 96 0.3 ESE 32 44 17 24 1017.0 1016.8 17.6
19/02:09am 12.9 7.5 12.3 96 0.3 ESE 32 41 17 22 1016.9 1016.7 17.6
19/02:00am 13.0 7.5 12.4 96 0.3 ESE 33 46 18 25 1016.8 1016.6 17.6
19/01:59am 12.9 7.4 12.3 96 0.3 ESE 33 46 18 25 1016.8 1016.6 17.6
19/01:30am 13.2 7.8 12.3 94 0.5 SE 32 44 17 24 1017.5 1017.3 17.4
19/01:21am 13.7 9.4 12.1 90 0.9 SE 26 35 14 19 1018.0 1017.8 17.0
19/01:00am 13.9 9.6 12.1 89 1.0 SE 26 33 14 18 1018.3 1018.1 17.0
19/12:30am 13.9 10.3 11.9 88 1.1 SE 22 33 12 18 1018.4 1018.2 17.0
19/12:00am 13.9 9.1 11.8 87 1.1 SE 28 35 15 19 1017.9 1017.7 17.0
 
Date/Time
WST
Temp
°C
App
Temp
°C
Dew
Point
Rel
Hum
%
Delta-T
°C
Wind Press
QNH
hPa
Press
MSL
hPa
Rain
since 9 am
mm
Dir
 
Spd
km/h
Gust
km/h
Spd
kts
Gust
kts
18/11:30pm 14.0 9.3 11.9 87 1.1 SE 28 37 15 20 1018.5 1018.3 17.0
18/11:00pm 13.9 9.9 11.8 87 1.1 SE 24 33 13 18 1018.4 1018.2 17.0
18/10:30pm 13.8 10.6 11.8 88 1.1 SE 20 28 11 15 1018.8 1018.6 17.0
18/10:00pm 13.6 10.3 11.7 88 1.0 SE 20 26 11 14 1018.8 1018.6 17.0
18/09:30pm 13.6 10.6 11.8 89 1.0 SE 19 26 10 14 1018.6 1018.4 17.0
18/09:00pm 13.7 11.0 11.7 88 1.1 ESE 17 24 9 13 1019.3 1019.1 17.0
18/08:30pm 13.6 10.6 11.8 89 1.0 ESE 19 24 10 13 1018.4 1018.2 17.0
18/08:00pm 13.6 9.2 11.8 89 1.0 ESE 26 35 14 19 1018.0 1017.8 17.0
18/07:30pm 13.6 9.2 11.8 89 1.0 ESE 26 37 14 20 1017.9 1017.7 17.0
18/07:00pm 13.4 8.6 11.6 89 1.0 SE 28 37 15 20 1016.9 1016.7 17.0
18/06:30pm 13.7 8.1 11.4 86 1.2 ESE 32 39 17 21 1016.5 1016.3 17.0
18/06:00pm 13.8 8.2 11.5 86 1.2 ESE 32 46 17 25 1016.2 1016.1 17.0
18/05:30pm 14.0 7.8 11.3 84 1.4 SE 35 48 19 26 1015.2 1015.1 17.0
18/05:00pm 14.2 7.7 11.7 85 1.3 SE 37 54 20 29 1015.2 1015.1 17.0
18/04:30pm 13.8 6.8 11.3 85 1.3 SE 39 56 21 30 1015.8 1015.7 17.0
18/04:06pm 13.9 7.1 11.8 87 1.1 SSE 39 57 21 31 1014.6 1014.5 17.0
18/04:00pm 13.9 6.7 11.8 87 1.1 SSE 41 52 22 28 1014.2 1014.0 17.0
18/03:30pm 13.9 6.7 11.8 87 1.1 SSE 41 59 22 32 1013.9 1013.7 17.0
18/03:00pm 13.9 5.9 12.5 91 0.8 SSE 46 65 25 35 1013.0 1012.8 17.0
18/02:59pm 13.9 5.9 12.5 91 0.8 SSE 46 65 25 35 1013.0 1012.8 17.0
18/02:30pm 13.4 5.3 13.1 98 0.2 SSE 48 69 26 37 1012.8 1012.6 17.0
18/02:15pm 13.8 6.8 13.6 99 0.1 S 43 63 23 34 1012.1 1011.9 17.0
18/02:03pm 13.9 6.9 13.7 99 0.1 SSW 43 61 23 33 1012.9 1012.7 16.8
18/02:00pm 14.1 7.9 13.9 99 0.1 SSW 39 54 21 29 1013.0 1012.8 16.8
18/01:54pm 14.3 7.2 14.1 99 0.1 SSE 44 59 24 32 1012.1 1011.9 16.8
18/01:41pm 14.6 7.6 14.3 98 0.2 S 44 63 24 34 1011.4 1011.2 16.8
18/01:40pm 14.7 7.9 14.4 98 0.2 S 43 63 23 34 1011.5 1011.3 16.8
18/01:30pm 15.8 10.6 15.6 99 0.1 S 37 54 20 29 1011.5 1011.3 16.8
18/01:21pm 16.0 11.8 15.7 98 0.2 SSW 32 54 17 29 1011.7 1011.5 16.6
18/01:00pm 17.1 14.5 16.8 98 0.2 SSE 26 32 14 17 1011.0 1010.8 15.4
18/12:59pm 17.3 14.8 17.0 98 0.2 SSE 26 32 14 17 1010.9 1010.7 15.4
18/12:34pm 18.0 15.8 16.0 88 1.2 SE 22 33 12 18 1010.1 1009.9 0.2
18/12:30pm 18.5 16.4 16.3 87 1.3 SE 22 28 12 15 1010.4 1010.2 0.2
18/12:00pm 20.1 17.7 16.5 80 2.2 ESE 24 32 13 17 1010.5 1010.3 0.0
18/11:30am 19.2 17.1 16.2 83 1.8 ESE 22 30 12 16 1011.4 1011.2 0.0
18/11:05am 19.2 17.4 16.1 82 1.9 E 20 30 11 16 1011.8 1011.6 0.0
18/11:00am 19.6 18.0 16.6 83 1.8 E 20 30 11 16 1011.7 1011.5 0.0
18/10:30am 17.8 16.0 15.6 87 1.3 E 19 28 10 15 1012.5 1012.3 0.0
18/10:00am 17.2 15.9 15.9 92 0.8 E 17 26 9 14 1013.1 1012.9 0.0
18/09:30am 16.3 14.9 15.5 95 0.5 ENE 17 30 9 16 1014.0 1013.8 0.0
18/09:00am 15.5 13.4 15.2 98 0.2 E 20 30 11 16 1014.0 1013.8 -
18/08:30am 15.0 13.3 14.8 99 0.1 E 17 26 9 14 1014.5 1014.4 -
18/08:17am 14.7 12.3 14.5 99 0.1 E 20 28 11 15 1014.4 1014.3 -
18/08:00am 14.5 12.1 14.3 99 0.1 E 20 32 11 17 1014.6 1014.5 -
18/07:55am 14.5 12.3 14.3 99 0.1 E 19 26 10 14 1014.8 1014.7 -
18/07:53am 14.5 12.3 14.3 99 0.1 E 19 24 10 13 1014.9 1014.8 -
18/07:38am 14.3 12.4 14.1 99 0.1 E 17 22 9 12 1015.0 1014.9 -
18/07:30am 14.2 12.6 14.0 99 0.1 E 15 19 8 10 1015.5 1015.4 -
18/07:24am 14.1 12.9 13.9 99 0.1 E 13 19 7 10 1015.6 1015.5 -
18/07:00am 14.0 12.7 13.7 98 0.2 ESE 13 17 7 9 1015.8 1015.7 -
18/06:30am 13.9 12.6 13.6 98 0.2 ESE 13 19 7 10 1015.3 1015.2 -
18/06:00am 13.9 13.7 13.6 98 0.2 SE 7 13 4 7 1015.6 1015.5 -
18/05:30am 13.8 11.0 13.3 97 0.3 ESE 20 28 11 15 1014.3 1014.1 -
18/05:00am 14.0 12.6 13.4 96 0.3 ENE 13 19 7 10 1015.1 1015.0 -
18/04:30am 13.9 12.5 13.4 97 0.3 NE 13 22 7 12 1015.4 1015.3 -
18/04:00am 13.7 12.2 13.2 97 0.3 NE 13 24 7 13 1015.4 1015.3 -
18/03:30am 13.5 12.4 13.2 98 0.2 ENE 11 15 6 8 1015.6 1015.5 -
18/03:29am 13.5 12.4 13.2 98 0.2 ENE 11 15 6 8 1015.6 1015.5 -
18/03:00am 13.1 12.3 12.8 98 0.2 NNE 9 13 5 7 1016.2 1016.1 2.0
18/02:59am 13.1 12.3 12.8 98 0.2 NNE 9 13 5 7 1016.3 1016.2 -
18/02:38am 13.1 12.8 12.6 97 0.3 NW 6 17 3 9 1016.3 1016.2 -
18/02:30am 13.0 10.9 12.5 97 0.3 WNW 15 19 8 10 1017.0 1016.8 -
18/02:22am 13.2 12.3 12.7 97 0.3 W 9 15 5 8 1016.7 1016.5 -
18/02:06am 13.2 12.9 12.7 97 0.3 E 6 13 3 7 1015.3 1015.2 -
18/02:00am 13.1 12.2 12.6 97 0.3 E 9 13 5 7 1015.0 1014.9 -
18/01:46am 12.5 11.8 12.0 97 0.3 NNE 7 9 4 5 1015.1 1015.0 -
18/01:30am 12.1 11.8 11.5 96 0.3 NNE 4 7 2 4 1015.3 1015.2 -
18/01:00am 12.1 11.2 11.3 95 0.4 SE 7 11 4 6 1014.7 1014.6 -
18/12:30am 12.6 11.4 11.7 94 0.5 ESE 9 11 5 6 1015.2 1015.1 -
18/12:00am 12.8 12.1 12.0 95 0.4 NE 7 11 4 6 1016.1 1016.0 -
 
Date/Time
WST
Temp
°C
App
Temp
°C
Dew
Point
Rel
Hum
%
Delta-T
°C
Wind Press
QNH
hPa
Press
MSL
hPa
Rain
since 9 am
mm
Dir
 
Spd
km/h
Gust
km/h
Spd
kts
Gust
kts
17/11:30pm 12.5 11.7 11.7 95 0.4 NNE 7 9 4 5 1016.7 1016.5 -
17/11:00pm 11.8 10.7 10.7 93 0.6 NNE 7 13 4 7 1016.7 1016.5 -
17/10:30pm 13.2 12.1 11.9 92 0.7 NE 9 11 5 6 1016.2 1016.1 -
17/10:00pm 13.3 12.7 12.2 93 0.6 ESE 7 9 4 5 1015.8 1015.7 -
17/09:30pm 13.4 12.3 12.1 92 0.7 SE 9 13 5 7 1015.9 1015.8 -
17/09:00pm 13.3 11.5 12.2 93 0.6 SSE 13 15 7 8 1015.6 1015.5 0.0
17/08:30pm 13.2 11.8 12.1 93 0.6 SSE 11 13 6 7 1015.8 1015.7 -
17/08:00pm 13.4 12.3 12.1 92 0.7 SSE 9 13 5 7 1016.0 1015.9 -
17/07:30pm 13.7 12.7 12.3 91 0.8 S 9 13 5 7 1016.1 1016.0 -
17/07:00pm 14.4 12.7 12.4 88 1.1 S 13 19 7 10 1015.9 1015.8 -
17/06:30pm 14.8 13.4 12.3 85 1.4 S 11 15 6 8 1015.7 1015.6 -
17/06:00pm 15.9 13.0 12.3 79 2.0 S 19 24 10 13 1015.4 1015.3 -
17/05:30pm 17.0 13.9 12.1 73 2.7 S 20 26 11 14 1015.1 1015.0 -
17/05:00pm 18.2 14.8 12.6 70 3.1 S 22 28 12 15 1014.8 1014.7 -
17/04:30pm 19.5 15.9 13.2 67 3.6 S 24 33 13 18 1014.3 1014.1 -
17/04:00pm 20.0 16.1 12.0 60 4.5 S 24 33 13 18 1014.2 1014.0 -
17/03:30pm 21.3 17.2 11.3 53 5.6 S 24 37 13 20 1014.2 1014.0 -
17/03:00pm 21.0 16.4 12.4 58 4.9 SSW 28 37 15 20 1013.9 1013.7 -
17/02:30pm 21.7 17.7 11.7 53 5.6 SSW 24 33 13 18 1013.7 1013.5 -
17/02:00pm 22.3 19.3 12.0 52 5.8 WSW 19 24 10 13 1013.4 1013.2 -
17/01:30pm 22.4 18.5 12.1 52 5.9 SSW 24 33 13 18 1013.2 1013.0 -
17/01:00pm 22.9 20.2 12.8 53 5.8 SW 19 26 10 14 1013.5 1013.3 -
17/12:30pm 22.4 19.0 12.4 53 5.7 SW 22 32 12 17 1013.4 1013.2 -

Other Formats:

Comma delimited format used in spreadsheet applications
http://www.bom.gov.au/fwo/IDW60801/IDW60801.95638.axf

JavaScript Object Notation format (JSON) in row-major order
http://www.bom.gov.au/fwo/IDW60801/IDW60801.95638.json